Time;durP1;ratioP1;P1;durP2;ratioP2;P2;SDS_P1;SDS_P2;PMS_P1;PMS_P2;Temp;Humidity;BMP_temperature;BMP_pressure;BME280_temperature;BME280_humidity;BME280_pressure;Samples;Min_cycle;Max_cycle;Signal;HPM_P1;HPM_P2
2021/05/10 00:00:10;;;;;;;2.88;1.50;;;19.50;53.60;;;;;;5072408;28;20650;-88
2021/05/10 00:02:36;;;;;;;5.63;1.88;;;19.60;53.50;;;;;;5072290;28;20261;-88
2021/05/10 00:05:02;;;;;;;5.03;1.80;;;19.50;53.60;;;;;;5072328;28;20528;-88
2021/05/10 00:07:27;;;;;;;1.65;1.38;;;19.40;53.90;;;;;;5072240;28;20225;-89
2021/05/10 00:09:53;;;;;;;3.70;1.70;;;19.30;54.30;;;;;;5072302;28;20183;-89
2021/05/10 00:12:19;;;;;;;1.67;1.52;;;19.40;53.20;;;;;;5072165;28;20253;-89
2021/05/10 00:14:45;;;;;;;2.20;1.58;;;19.50;52.80;;;;;;5072201;28;20172;-89
2021/05/10 00:17:11;;;;;;;5.53;1.55;;;19.50;52.90;;;;;;5072431;28;20198;-89
2021/05/10 00:19:37;;;;;;;3.78;1.98;;;19.40;53.20;;;;;;5072017;28;20267;-89
2021/05/10 00:22:04;;;;;;;6.70;1.50;;;19.40;52.90;;;;;;5073207;28;20219;-89
2021/05/10 00:24:29;;;;;;;5.72;1.65;;;19.30;53.50;;;;;;5073337;28;20168;-88
2021/05/10 00:26:55;;;;;;;3.00;1.60;;;19.30;52.90;;;;;;5073330;28;20167;-89
2021/05/10 00:29:21;;;;;;;1.88;1.55;;;19.30;53.10;;;;;;5073282;28;20171;-88
2021/05/10 00:31:47;;;;;;;5.18;1.85;;;19.30;52.20;;;;;;5072014;28;20697;-88
2021/05/10 00:34:13;;;;;;;2.92;1.67;;;19.40;52.30;;;;;;5073209;28;20225;-88
2021/05/10 00:36:39;;;;;;;6.13;2.35;;;19.50;51.80;;;;;;5071797;28;20176;-88
2021/05/10 00:39:06;;;;;;;4.53;1.85;;;19.30;52.10;;;;;;5071934;28;20172;-88
2021/05/10 00:41:32;;;;;;;3.65;1.70;;;19.30;51.80;;;;;;5073109;28;20666;-88
2021/05/10 00:43:57;;;;;;;6.82;1.90;;;19.40;51.90;;;;;;5073148;28;20270;-88
2021/05/10 00:46:23;;;;;;;1.65;1.27;;;19.20;52.80;;;;;;5071878;28;20662;-88
2021/05/10 00:48:49;;;;;;;3.83;1.63;;;19.00;53.60;;;;;;5073351;28;20239;-88
2021/05/10 00:51:14;;;;;;;3.45;1.90;;;18.80;54.60;;;;;;5071715;28;20210;-88
2021/05/10 00:53:40;;;;;;;3.67;1.45;;;18.50;55.60;;;;;;5073063;28;20175;-88
2021/05/10 00:56:06;;;;;;;2.67;1.80;;;18.40;55.80;;;;;;5071768;28;20229;-88
2021/05/10 00:58:32;;;;;;;1.88;1.50;;;18.40;55.80;;;;;;5071787;28;20231;-88
2021/05/10 01:00:58;;;;;;;2.85;1.75;;;18.40;55.50;;;;;;5072887;28;20184;-88
2021/05/10 01:03:25;;;;;;;2.70;1.70;;;18.50;55.10;;;;;;5071728;28;20699;-88
2021/05/10 01:05:51;;;;;;;4.82;1.70;;;18.50;55.50;;;;;;5072874;28;20541;-88
2021/05/10 01:08:16;;;;;;;2.00;1.55;;;18.40;55.40;;;;;;5072489;28;20172;-88
2021/05/10 01:10:43;;;;;;;2.67;1.60;;;18.50;55.20;;;;;;5072683;28;20569;-88
2021/05/10 01:13:09;;;;;;;5.10;1.35;;;18.40;55.50;;;;;;5071610;28;20175;-88
2021/05/10 01:15:34;;;;;;;2.75;1.80;;;18.30;56.30;;;;;;5071530;28;20183;-88
2021/05/10 01:18:00;;;;;;;3.03;1.52;;;18.20;56.60;;;;;;5071554;28;20203;-88
2021/05/10 01:20:26;;;;;;;3.35;1.80;;;18.00;57.60;;;;;;5071565;28;20643;-88
2021/05/10 01:22:56;;;;;;;5.75;2.22;;;17.90;57.80;;;;;;5072607;28;20201;-88
2021/05/10 01:25:27;;;;;;;2.65;1.88;;;17.80;58.80;;;;;;5071463;28;20168;-88
2021/05/10 01:27:53;;;;;;;1.92;1.65;;;17.60;59.90;;;;;;5071606;28;20190;-88
2021/05/10 01:30:24;;;;;;;1.98;1.77;;;17.50;60.60;;;;;;5075784;28;20614;-88
2021/05/10 01:32:51;;;;;;;5.45;1.48;;;17.40;60.40;;;;;;5076235;28;20187;-88
2021/05/10 01:35:31;;;;;;;3.83;1.90;;;17.40;60.60;;;;;;5075075;28;20669;-88
2021/05/10 01:37:57;;;;;;;4.05;1.88;;;17.30;60.80;;;;;;5074895;28;20219;-88
2021/05/10 01:40:23;;;;;;;2.05;1.55;;;17.30;60.30;;;;;;5076487;28;20624;-88
2021/05/10 01:42:49;;;;;;;3.55;1.95;;;17.30;60.60;;;;;;5076133;28;20187;-88
2021/05/10 01:45:15;;;;;;;1.70;1.45;;;17.30;61.20;;;;;;5074855;28;20284;-88
2021/05/10 01:47:41;;;;;;;4.45;2.35;;;17.20;61.50;;;;;;5074844;28;20263;-88
2021/05/10 01:50:18;;;;;;;7.03;1.92;;;17.10;62.00;;;;;;5074700;28;20182;-88
2021/05/10 01:52:44;;;;;;;2.42;1.70;;;17.10;61.10;;;;;;5074741;28;20234;-87
2021/05/10 01:55:11;;;;;;;2.88;2.00;;;17.50;59.70;;;;;;5074818;28;20712;-88
2021/05/10 01:57:37;;;;;;;2.55;1.83;;;17.30;61.00;;;;;;5074744;28;20203;-87
2021/05/10 02:00:10;;;;;;;1.63;1.50;;;17.20;60.90;;;;;;5074673;28;20278;-87
2021/05/10 02:02:36;;;;;;;2.35;1.58;;;17.30;59.70;;;;;;5076067;28;20186;-88
2021/05/10 02:05:05;;;;;;;3.92;1.73;;;17.70;58.00;;;;;;5074488;28;20178;-88
2021/05/10 02:07:30;;;;;;;1.88;1.60;;;17.70;57.90;;;;;;5074599;28;20181;-88
2021/05/10 02:09:56;;;;;;;2.22;1.77;;;17.70;58.70;;;;;;5074752;28;20538;-88
2021/05/10 02:12:22;;;;;;;6.75;1.80;;;17.60;59.00;;;;;;5074288;28;20199;-88
2021/05/10 02:14:48;;;;;;;2.30;1.48;;;17.40;59.30;;;;;;5074328;28;20705;-88
2021/05/10 02:17:13;;;;;;;6.50;1.70;;;17.40;59.60;;;;;;5074292;28;20233;-88
2021/05/10 02:19:39;;;;;;;3.25;1.73;;;17.30;59.50;;;;;;5074206;28;20203;-88
2021/05/10 02:22:05;;;;;;;4.22;1.77;;;17.30;60.00;;;;;;5075195;28;20261;-88
2021/05/10 02:24:35;;;;;;;4.80;2.03;;;17.40;58.70;;;;;;5075379;28;20234;-88
2021/05/10 02:27:01;;;;;;;5.25;1.92;;;17.50;58.90;;;;;;5074081;28;20631;-87
2021/05/10 02:29:26;;;;;;;3.47;1.60;;;17.50;58.00;;;;;;5075256;28;20236;-87
2021/05/10 02:31:52;;;;;;;5.25;1.77;;;17.70;57.70;;;;;;5075217;28;20296;-87
2021/05/10 02:34:18;;;;;;;4.10;1.58;;;17.80;57.10;;;;;;5075579;28;20172;-87
2021/05/10 02:36:43;;;;;;;2.42;1.50;;;18.00;56.20;;;;;;5075175;28;20171;-88
2021/05/10 02:39:09;;;;;;;2.08;1.48;;;18.10;55.70;;;;;;5073950;28;20163;-88
2021/05/10 02:41:34;;;;;;;6.70;2.00;;;18.30;55.00;;;;;;5074028;28;20218;-88
2021/05/10 02:44:00;;;;;;;8.38;1.70;;;18.30;55.20;;;;;;5075351;28;20631;-87
2021/05/10 02:46:25;;;;;;;4.20;1.77;;;18.30;54.80;;;;;;5073737;28;20179;-87
2021/05/10 02:48:51;;;;;;;3.30;1.63;;;18.40;54.50;;;;;;5073719;28;20545;-88
2021/05/10 02:51:17;;;;;;;1.67;1.52;;;18.50;54.30;;;;;;5073527;28;20195;-88
2021/05/10 02:53:42;;;;;;;4.90;1.50;;;18.60;53.90;;;;;;5073615;28;20651;-88
2021/05/10 02:56:08;;;;;;;8.18;1.85;;;18.60;53.30;;;;;;5073556;28;20171;-88
2021/05/10 02:58:33;;;;;;;7.60;1.90;;;18.70;53.00;;;;;;5074685;28;20195;-88
2021/05/10 03:00:59;;;;;;;4.80;1.92;;;18.80;52.70;;;;;;5074673;28;20191;-88
2021/05/10 03:03:24;;;;;;;4.00;1.50;;;18.80;52.80;;;;;;5073378;28;20172;-88
2021/05/10 03:05:51;;;;;;;3.80;1.50;;;18.70;53.70;;;;;;5073443;28;20263;-88
2021/05/10 03:08:17;;;;;;;2.38;1.55;;;18.60;54.30;;;;;;5073233;28;20175;-88
2021/05/10 03:10:42;;;;;;;1.75;1.40;;;18.50;54.60;;;;;;5073261;28;20549;-88
2021/05/10 03:13:08;;;;;;;6.95;1.58;;;18.40;54.70;;;;;;5074635;28;20171;-88
2021/05/10 03:15:34;;;;;;;4.85;1.40;;;18.50;54.20;;;;;;5073066;28;20332;-88
2021/05/10 03:17:59;;;;;;;4.80;1.50;;;18.40;54.70;;;;;;5074178;28;20201;-88
2021/05/10 03:20:25;;;;;;;4.05;1.70;;;18.40;55.30;;;;;;5073253;28;20176;-88
2021/05/10 03:22:54;;;;;;;2.80;1.50;;;18.30;55.10;;;;;;5072808;28;20203;-88
2021/05/10 03:25:21;;;;;;;6.80;1.50;;;18.40;55.30;;;;;;5072878;28;20176;-88
2021/05/10 03:27:47;;;;;;;2.10;1.50;;;18.20;56.40;;;;;;5074078;28;20171;-88
2021/05/10 03:30:19;;;;;;;4.25;1.90;;;18.00;56.50;;;;;;5072772;28;20183;-88
2021/05/10 03:32:46;;;;;;;5.32;1.90;;;18.10;55.80;;;;;;5072721;28;20207;-88
2021/05/10 03:35:13;;;;;;;4.38;1.75;;;18.20;55.50;;;;;;5072720;28;20262;-88
2021/05/10 03:37:40;;;;;;;6.28;1.70;;;18.10;56.00;;;;;;5072593;28;20249;-88
2021/05/10 03:40:10;;;;;;;2.38;1.73;;;18.00;56.00;;;;;;5072604;28;20199;-88
2021/05/10 03:42:35;;;;;;;6.00;1.85;;;17.80;57.20;;;;;;5073828;28;20236;-88
2021/05/10 03:45:02;;;;;;;6.07;1.77;;;17.70;58.50;;;;;;5072573;28;20262;-88
2021/05/10 03:47:39;;;;;;;15.00;2.42;;;17.60;58.90;;;;;;5073736;28;20175;-88
2021/05/10 03:50:19;;;;;;;3.10;1.58;;;17.60;59.40;;;;;;5073951;28;20154;-88
2021/05/10 03:52:47;;;;;;;3.97;1.77;;;17.40;59.50;;;;;;5072135;28;20195;-88
2021/05/10 03:55:15;;;;;;;1.83;1.50;;;17.40;59.20;;;;;;5073656;28;20172;-88
2021/05/10 03:57:41;;;;;;;6.82;1.70;;;17.20;61.10;;;;;;5072200;28;20191;-88
2021/05/10 04:00:08;;;;;;;2.15;1.63;;;17.00;61.20;;;;;;5073851;28;20537;-88
2021/05/10 04:02:36;;;;;;;8.38;2.08;;;16.90;61.50;;;;;;5073725;28;20194;-88
2021/05/10 04:15:18;;;;;;;5.18;1.83;;;16.30;65.10;;;;;;5073473;28;20167;-88
2021/05/10 04:17:44;;;;;;;5.90;1.88;;;16.40;64.10;;;;;;5073305;28;20195;-88
2021/05/10 04:20:10;;;;;;;7.97;1.90;;;16.50;63.60;;;;;;5073319;28;20168;-87
2021/05/10 04:22:35;;;;;;;5.40;1.83;;;16.50;63.70;;;;;;5073205;28;20693;-88
2021/05/10 04:25:01;;;;;;;4.93;2.08;;;16.50;63.70;;;;;;5073246;28;20167;-88
2021/05/10 04:27:27;;;;;;;4.63;1.98;;;16.60;62.60;;;;;;5073281;28;20172;-88
2021/05/10 04:29:53;;;;;;;7.18;1.88;;;16.60;63.20;;;;;;5071957;28;20232;-88
2021/05/10 04:32:18;;;;;;;11.75;2.03;;;16.60;63.70;;;;;;5071937;28;20609;-88
2021/05/10 04:34:47;;;;;;;3.65;1.98;;;16.50;66.20;;;;;;5071931;28;20213;-88
2021/05/10 04:37:13;;;;;;;4.38;1.90;;;16.40;67.40;;;;;;5071876;28;20242;-88
2021/05/10 04:39:38;;;;;;;5.30;2.00;;;16.40;66.90;;;;;;5071862;28;20215;-88
2021/05/10 04:42:04;;;;;;;7.43;1.90;;;16.60;66.20;;;;;;5071829;28;20191;-88
2021/05/10 04:44:30;;;;;;;3.47;1.60;;;16.70;65.40;;;;;;5072752;28;20608;-88
2021/05/10 04:46:55;;;;;;;5.13;2.10;;;16.80;65.00;;;;;;5071831;28;20661;-88
2021/05/10 04:49:21;;;;;;;5.82;1.60;;;17.00;63.50;;;;;;5073035;28;20160;-88
2021/05/10 04:51:47;;;;;;;3.13;1.63;;;17.00;62.70;;;;;;5071761;28;20610;-88
2021/05/10 04:54:12;;;;;;;1.75;1.60;;;17.10;62.70;;;;;;5071785;28;20167;-88
2021/05/10 04:56:38;;;;;;;6.93;2.00;;;17.20;63.00;;;;;;5073215;28;20636;-88
2021/05/10 04:59:03;;;;;;;11.15;2.40;;;17.20;64.20;;;;;;5071648;28;20203;-88
2021/05/10 05:01:29;;;;;;;9.23;2.15;;;17.20;64.00;;;;;;5072869;28;20198;-88
2021/05/10 05:03:55;;;;;;;6.53;2.00;;;17.10;64.20;;;;;;5072629;28;20167;-88
2021/05/10 05:06:20;;;;;;;6.28;1.70;;;17.20;62.20;;;;;;5076810;28;20183;-88
2021/05/10 05:08:46;;;;;;;5.60;2.13;;;17.30;62.30;;;;;;5076728;28;20182;-88
2021/05/10 05:11:11;;;;;;;4.30;2.05;;;17.30;61.60;;;;;;5075471;28;20199;-88
2021/05/10 05:13:37;;;;;;;3.70;2.00;;;17.30;61.70;;;;;;5075394;28;20187;-88
2021/05/10 05:16:03;;;;;;;18.10;2.30;;;17.30;63.30;;;;;;5075364;28;20211;-88
2021/05/10 05:18:29;;;;;;;3.55;1.90;;;17.30;63.40;;;;;;5076519;28;20568;-88
2021/05/10 05:20:55;;;;;;;2.42;1.63;;;17.40;64.30;;;;;;5076375;28;20294;-89
2021/05/10 05:23:25;;;;;;;7.72;1.85;;;17.40;64.50;;;;;;5076563;28;20159;-88
2021/05/10 05:26:03;;;;;;;4.72;1.73;;;17.40;65.30;;;;;;5076465;28;20172;-88
2021/05/10 05:28:30;;;;;;;4.10;2.35;;;17.40;65.00;;;;;;5076346;28;20175;-88
2021/05/10 05:30:58;;;;;;;6.53;1.90;;;17.40;65.20;;;;;;5076273;28;20199;-88
2021/05/10 05:33:24;;;;;;;9.55;1.70;;;17.40;64.40;;;;;;5075130;28;20244;-88
2021/05/10 05:35:50;;;;;;;7.60;1.95;;;17.40;65.00;;;;;;5075310;28;20183;-88
2021/05/10 05:38:16;;;;;;;4.97;2.20;;;17.40;64.80;;;;;;5076192;28;20190;-88
2021/05/10 05:40:43;;;;;;;3.33;1.90;;;17.40;64.60;;;;;;5074937;28;20171;-88
2021/05/10 05:43:10;;;;;;;2.33;1.80;;;17.40;64.80;;;;;;5076305;28;20691;-88
2021/05/10 05:45:37;;;;;;;4.15;1.83;;;17.40;64.80;;;;;;5076039;28;20167;-88
2021/05/10 05:48:04;;;;;;;4.43;1.92;;;17.40;64.30;;;;;;5076087;28;20175;-88
2021/05/10 05:50:31;;;;;;;5.05;2.47;;;17.40;64.30;;;;;;5074774;28;20232;-88
2021/05/10 05:52:56;;;;;;;6.13;3.03;;;17.50;64.10;;;;;;5074688;28;20175;-88
2021/05/10 05:55:22;;;;;;;9.00;4.28;;;17.50;63.70;;;;;;5074672;28;20183;-88
2021/05/10 05:57:48;;;;;;;4.82;3.80;;;17.50;63.30;;;;;;5075421;28;20202;-88
2021/05/10 06:00:14;;;;;;;5.43;2.83;;;17.50;63.50;;;;;;5074689;28;20254;-88
2021/05/10 06:02:43;;;;;;;8.52;2.25;;;17.60;64.00;;;;;;5075705;28;20187;-88
2021/05/10 06:05:12;;;;;;;6.93;2.97;;;17.70;63.50;;;;;;5075981;28;20246;-88
2021/05/10 06:07:39;;;;;;;8.30;2.40;;;17.70;63.60;;;;;;5074542;28;20210;-88
2021/05/10 06:10:05;;;;;;;5.85;1.63;;;17.70;63.90;;;;;;5074399;28;20179;-88
2021/05/10 06:12:31;;;;;;;3.17;1.70;;;17.70;64.30;;;;;;5075671;28;20274;-88
2021/05/10 06:14:57;;;;;;;5.18;1.85;;;17.70;63.90;;;;;;5075626;28;20254;-88
2021/05/10 06:17:22;;;;;;;4.97;1.90;;;17.80;64.40;;;;;;5074237;28;20192;-88
2021/05/10 06:19:48;;;;;;;4.25;1.95;;;17.80;63.20;;;;;;5075327;28;20214;-89
2021/05/10 06:22:15;;;;;;;4.13;1.73;;;17.90;62.40;;;;;;5075471;28;20581;-89
2021/05/10 06:24:41;;;;;;;4.25;1.50;;;17.90;62.70;;;;;;5074279;28;20235;-89
2021/05/10 06:27:06;;;;;;;5.13;1.88;;;17.90;62.80;;;;;;5075551;28;20199;-88
2021/05/10 06:29:32;;;;;;;9.32;2.17;;;17.90;63.40;;;;;;5075462;28;20225;-89
2021/05/10 06:31:57;;;;;;;6.68;1.90;;;17.90;63.90;;;;;;5075366;28;20195;-89
2021/05/10 06:34:23;;;;;;;6.20;2.10;;;18.00;63.90;;;;;;5074029;28;20231;-89
2021/05/10 06:36:49;;;;;;;2.63;1.50;;;18.00;64.40;;;;;;5075121;28;20172;-89
2021/05/10 06:39:15;;;;;;;4.20;1.80;;;18.00;64.20;;;;;;5073878;28;20183;-88
2021/05/10 06:41:41;;;;;;;3.33;1.75;;;18.20;63.20;;;;;;5075008;28;20194;-89
2021/05/10 06:44:07;;;;;;;2.67;1.73;;;18.30;62.70;;;;;;5073814;28;20174;-88
2021/05/10 06:46:32;;;;;;;3.53;1.75;;;18.40;62.30;;;;;;5073817;28;20199;-88
2021/05/10 06:48:58;;;;;;;5.88;2.10;;;18.60;62.00;;;;;;5074891;28;20179;-88
2021/05/10 06:51:24;;;;;;;13.82;1.98;;;18.70;62.60;;;;;;5073486;28;20686;-88
2021/05/10 06:53:49;;;;;;;4.13;1.67;;;18.80;62.10;;;;;;5074850;28;20224;-89
2021/05/10 06:56:15;;;;;;;10.63;2.00;;;18.80;62.10;;;;;;5073451;28;20638;-88
2021/05/10 06:58:41;;;;;;;6.70;1.60;;;18.90;62.20;;;;;;5073372;28;20200;-88
2021/05/10 07:01:06;;;;;;;4.40;1.90;;;19.10;61.30;;;;;;5073260;28;20194;-88
2021/05/10 07:03:32;;;;;;;4.70;1.70;;;19.10;61.50;;;;;;5073288;28;20167;-88
2021/05/10 07:05:57;;;;;;;6.28;1.85;;;19.20;60.30;;;;;;5073352;28;20205;-88
2021/05/10 07:08:23;;;;;;;5.15;1.60;;;19.40;59.70;;;;;;5073260;28;20183;-88
2021/05/10 07:10:52;;;;;;;6.93;2.42;;;19.50;60.70;;;;;;5073102;28;20175;-88
2021/05/10 07:13:17;;;;;;;4.95;1.58;;;19.50;60.70;;;;;;5074299;28;20175;-87
2021/05/10 07:15:44;;;;;;;7.85;2.20;;;19.50;60.30;;;;;;5074329;28;20278;-88
2021/05/10 07:18:11;;;;;;;4.75;2.00;;;19.50;61.10;;;;;;5072986;28;20278;-87
2021/05/10 07:20:38;;;;;;;2.92;1.50;;;19.50;61.10;;;;;;5074037;28;20204;-87
2021/05/10 07:23:06;;;;;;;9.18;1.70;;;19.50;61.00;;;;;;5072855;28;20661;-87
2021/05/10 07:25:33;;;;;;;4.13;1.80;;;19.50;60.90;;;;;;5072974;28;20167;-87
2021/05/10 07:27:59;;;;;;;7.15;1.80;;;19.50;60.10;;;;;;5072241;28;20321;-87
2021/05/10 07:30:25;;;;;;;6.88;1.80;;;19.60;60.30;;;;;;5072678;28;20554;-87
2021/05/10 07:32:51;;;;;;;5.03;2.00;;;19.60;60.50;;;;;;5073856;28;20201;-87
2021/05/10 07:35:16;;;;;;;6.32;1.80;;;19.60;60.60;;;;;;5073942;28;20175;-87
2021/05/10 07:37:42;;;;;;;4.90;2.08;;;19.70;60.60;;;;;;5072508;28;20678;-87
2021/05/10 07:40:08;;;;;;;4.70;2.00;;;19.70;62.00;;;;;;5072640;28;20635;-87
2021/05/10 07:42:34;;;;;;;2.78;1.80;;;19.70;62.50;;;;;;5073803;28;20187;-88
2021/05/10 07:45:00;;;;;;;4.75;1.98;;;19.90;63.80;;;;;;5072449;28;20179;-87
2021/05/10 07:47:29;;;;;;;2.05;1.40;;;20.20;62.60;;;;;;5072530;28;20188;-87
2021/05/10 07:49:55;;;;;;;6.80;1.77;;;20.30;61.30;;;;;;5072417;28;20233;-87
2021/05/10 07:52:21;;;;;;;2.13;1.52;;;20.30;61.00;;;;;;5072355;28;20199;-87
2021/05/10 07:54:47;;;;;;;9.32;1.90;;;20.30;60.80;;;;;;5073878;28;20175;-88
2021/05/10 07:57:12;;;;;;;3.75;1.75;;;20.30;61.20;;;;;;5072294;28;20566;-88
2021/05/10 07:59:38;;;;;;;6.45;1.60;;;20.50;60.10;;;;;;5072279;28;20172;-87
2021/05/10 08:02:05;;;;;;;9.50;2.28;;;20.60;59.30;;;;;;5073555;28;20614;-87
2021/05/10 08:04:30;;;;;;;4.78;1.55;;;20.80;60.10;;;;;;5072218;28;20176;-88
2021/05/10 08:06:56;;;;;;;6.43;1.88;;;21.00;59.70;;;;;;5073592;28;20173;-88
2021/05/10 08:09:22;;;;;;;3.47;1.60;;;21.20;59.50;;;;;;5072233;28;20171;-87
2021/05/10 08:11:48;;;;;;;3.28;1.80;;;21.20;60.20;;;;;;5073339;28;20190;-87
2021/05/10 08:14:14;;;;;;;3.22;1.70;;;21.20;58.20;;;;;;5072127;28;20179;-87
2021/05/10 08:16:39;;;;;;;2.80;1.90;;;21.40;56.60;;;;;;5073305;28;20174;-87
2021/05/10 08:19:06;;;;;;;5.47;1.70;;;21.30;58.10;;;;;;5072020;28;20199;-87
2021/05/10 08:21:31;;;;;;;6.85;1.98;;;21.30;58.10;;;;;;5071907;28;20214;-87
2021/05/10 08:23:57;;;;;;;5.22;1.58;;;21.30;60.30;;;;;;5073261;28;20171;-87
2021/05/10 08:26:23;;;;;;;5.13;1.75;;;21.20;60.00;;;;;;5073182;28;20370;-87
2021/05/10 08:28:48;;;;;;;6.20;1.92;;;21.40;60.60;;;;;;5073449;28;20233;-86
2021/05/10 08:31:14;;;;;;;8.10;2.00;;;21.50;60.10;;;;;;5071810;28;20278;-87
2021/05/10 08:33:40;;;;;;;7.35;1.90;;;21.70;60.20;;;;;;5073496;28;20661;-87
2021/05/10 08:36:05;;;;;;;5.00;1.70;;;21.70;59.40;;;;;;5073071;28;20682;-87
2021/05/10 08:38:31;;;;;;;3.90;1.63;;;21.80;58.60;;;;;;5073401;28;20252;-87
2021/05/10 08:40:57;;;;;;;3.40;1.50;;;21.80;58.60;;;;;;5075928;28;20195;-87
2021/05/10 08:43:25;;;;;;;7.00;2.05;;;22.20;53.80;;;;;;5077200;28;20182;-87
2021/05/10 08:45:55;;;;;;;3.40;2.22;;;22.50;54.30;;;;;;5077186;28;20167;-87
2021/05/10 08:48:25;;;;;;;4.80;2.17;;;22.50;54.80;;;;;;5077462;28;20205;-87
2021/05/10 08:50:52;;;;;;;4.68;1.77;;;22.50;56.60;;;;;;5075907;28;20199;-87
2021/05/10 08:53:37;;;;;;;3.45;1.10;;;22.50;52.50;;;;;;5075761;28;20546;-86
2021/05/10 08:56:04;;;;;;;3.00;1.60;;;22.50;51.50;;;;;;5076955;28;20169;-86
2021/05/10 08:58:41;;;;;;;5.28;1.65;;;22.40;50.50;;;;;;5076625;28;20199;-87
2021/05/10 09:01:08;;;;;;;2.47;1.50;;;22.30;52.50;;;;;;5076870;28;20179;-87
2021/05/10 09:03:44;;;;;;;4.47;1.52;;;22.30;53.00;;;;;;5076825;28;20233;-87
2021/05/10 09:06:13;;;;;;;4.28;1.33;;;22.60;50.60;;;;;;5076794;28;20174;-87
2021/05/10 09:08:44;;;;;;;7.00;1.95;;;22.80;51.50;;;;;;5075508;28;20202;-87
2021/05/10 09:11:17;;;;;;;5.05;1.40;;;22.80;52.10;;;;;;5076666;28;20195;-87
2021/05/10 09:13:45;;;;;;;4.07;1.33;;;22.80;50.10;;;;;;5076637;28;20221;-87
2021/05/10 09:16:12;;;;;;;4.95;1.65;;;22.80;51.00;;;;;;5075389;28;20270;-87
2021/05/10 09:18:39;;;;;;;3.75;1.70;;;22.70;51.60;;;;;;5075279;28;20199;-87
2021/05/10 09:21:11;;;;;;;3.38;1.55;;;22.60;53.10;;;;;;5076265;28;20245;-87
2021/05/10 09:23:37;;;;;;;6.10;1.65;;;22.60;50.20;;;;;;5075473;28;20167;-87
2021/05/10 09:26:03;;;;;;;3.00;1.27;;;22.50;50.10;;;;;;5076004;28;20643;-87
2021/05/10 09:28:36;;;;;;;2.72;1.30;;;22.60;50.20;;;;;;5075971;28;20181;-87
2021/05/10 09:31:08;;;;;;;6.40;1.73;;;22.40;50.70;;;;;;5077694;28;20661;-87
2021/05/10 09:33:35;;;;;;;9.38;2.40;;;22.50;49.50;;;;;;5076078;28;20180;-87
2021/05/10 09:36:06;;;;;;;4.07;1.10;;;22.50;48.40;;;;;;5077231;28;20563;-87
2021/05/10 09:38:33;;;;;;;3.05;1.52;;;22.50;50.40;;;;;;5076071;28;20199;-87
2021/05/10 09:41:05;;;;;;;34.75;1.58;;;22.70;50.30;;;;;;5077522;28;20639;-87
2021/05/10 09:43:35;;;;;;;5.80;1.30;;;22.80;49.30;;;;;;5078219;28;20190;-87
2021/05/10 09:46:19;;;;;;;4.35;1.45;;;22.80;49.60;;;;;;5077469;28;20213;-87
2021/05/10 09:48:46;;;;;;;3.75;1.52;;;22.70;49.00;;;;;;5078082;28;20166;-87
2021/05/10 09:51:16;;;;;;;1.65;1.17;;;22.70;48.70;;;;;;5077855;28;20697;-87
2021/05/10 09:53:54;;;;;;;4.65;1.30;;;22.50;49.10;;;;;;5077070;28;20655;-87
2021/05/10 09:58:53;;;;;;;2.40;1.38;;;22.40;51.00;;;;;;5077982;28;20184;-88
2021/05/10 10:01:20;;;;;;;3.75;1.60;;;22.50;50.10;;;;;;5076396;28;20191;-87
2021/05/10 10:03:57;;;;;;;13.60;1.33;;;22.60;51.30;;;;;;5077273;28;20167;-88
2021/05/10 10:06:24;;;;;;;4.22;1.10;;;22.60;50.20;;;;;;5076269;28;20580;-87
2021/05/10 10:08:50;;;;;;;3.15;1.33;;;22.50;49.80;;;;;;5077136;28;20175;-88
2021/05/10 10:11:20;;;;;;;3.03;1.40;;;22.30;50.50;;;;;;5076675;28;20195;-87
2021/05/10 10:13:46;;;;;;;3.30;1.42;;;22.30;50.00;;;;;;5076703;28;20183;-87
2021/05/10 10:16:15;;;;;;;1.90;1.40;;;22.40;51.40;;;;;;5078142;28;20171;-87
2021/05/10 10:18:42;;;;;;;3.88;1.17;;;22.30;50.70;;;;;;5078184;28;20199;-87
2021/05/10 10:21:09;;;;;;;4.63;1.35;;;22.20;51.80;;;;;;5076737;28;20571;-87
2021/05/10 10:23:36;;;;;;;2.30;1.50;;;22.20;51.40;;;;;;5077474;28;20262;-87
2021/05/10 10:26:06;;;;;;;4.80;1.63;;;22.00;51.90;;;;;;5077919;28;20186;-87
2021/05/10 10:28:33;;;;;;;1.45;1.20;;;22.00;51.30;;;;;;5078199;28;20164;-87
2021/05/10 10:31:04;;;;;;;3.95;1.60;;;22.10;51.00;;;;;;5078699;28;20191;-87
2021/05/10 10:33:52;;;;;;;3.05;1.55;;;22.10;51.70;;;;;;5076389;28;20179;-87
2021/05/10 10:36:38;;;;;;;3.95;1.70;;;22.20;53.10;;;;;;5070258;28;20278;-88
2021/05/10 10:39:10;;;;;;;2.88;1.15;;;22.60;51.40;;;;;;5076020;28;20218;-87
2021/05/10 10:41:57;;;;;;;3.95;1.85;;;23.10;48.90;;;;;;5078532;28;20237;-87
2021/05/10 10:44:30;;;;;;;2.00;1.30;;;23.40;48.80;;;;;;5077564;28;20639;-87
2021/05/10 10:46:56;;;;;;;3.45;1.40;;;23.40;50.20;;;;;;5075764;28;20537;-87
2021/05/10 10:49:31;;;;;;;6.00;1.60;;;23.20;50.00;;;;;;5076364;28;20171;-87
2021/05/10 10:51:58;;;;;;;5.75;2.08;;;23.10;50.40;;;;;;5076995;28;20277;-87
2021/05/10 10:54:28;;;;;;;10.27;1.67;;;23.00;50.70;;;;;;5076344;28;20182;-87
2021/05/10 10:56:59;;;;;;;2.53;1.40;;;22.80;51.20;;;;;;5076496;28;20636;-87
2021/05/10 10:59:39;;;;;;;5.45;1.73;;;22.70;50.50;;;;;;5076623;28;20168;-87
2021/05/10 11:02:44;;;;;;;5.72;2.15;;;22.50;51.60;;;;;;5075630;28;20674;-87
2021/05/10 11:05:20;;;;;;;6.13;1.70;;;22.40;52.30;;;;;;5070529;28;20232;-87
2021/05/10 11:08:09;;;;;;;3.45;1.30;;;22.30;51.80;;;;;;5078607;28;20159;-87
2021/05/10 11:10:51;;;;;;;2.25;1.40;;;22.30;52.40;;;;;;5076107;28;20522;-87
2021/05/10 11:13:26;;;;;;;5.57;1.63;;;22.40;53.20;;;;;;5076452;28;20167;-87
2021/05/10 11:15:59;;;;;;;4.63;1.80;;;22.50;52.50;;;;;;5075496;28;20262;-88
2021/05/10 11:18:33;;;;;;;5.40;1.60;;;22.70;50.70;;;;;;5075263;28;20195;-87
2021/05/10 11:20:59;;;;;;;7.97;1.50;;;22.80;51.00;;;;;;5074965;28;20203;-88
2021/05/10 11:23:25;;;;;;;5.18;1.60;;;22.90;53.20;;;;;;5074830;28;20178;-87
2021/05/10 11:25:53;;;;;;;2.97;1.60;;;23.30;52.40;;;;;;5075064;28;20255;-87
2021/05/10 11:28:24;;;;;;;4.13;1.73;;;23.80;49.60;;;;;;5075094;28;20657;-87
2021/05/10 11:31:00;;;;;;;4.28;1.00;;;24.00;49.80;;;;;;5073546;28;20196;-88
2021/05/10 11:33:55;;;;;;;1.98;1.50;;;24.40;48.40;;;;;;5073625;28;20183;-88
2021/05/10 11:36:28;;;;;;;6.40;1.40;;;24.30;47.80;;;;;;5070226;28;20183;-87
2021/05/10 11:39:03;;;;;;;9.30;1.40;;;24.20;47.60;;;;;;5074276;28;20195;-87
2021/05/10 11:41:34;;;;;;;5.07;1.77;;;24.00;47.90;;;;;;5073984;28;20193;-87
2021/05/10 11:44:02;;;;;;;3.00;1.67;;;23.90;48.50;;;;;;5075165;28;20238;-87
2021/05/10 11:46:47;;;;;;;2.45;1.65;;;23.90;47.70;;;;;;5074137;28;20175;-87
2021/05/10 11:49:30;;;;;;;2.67;1.30;;;23.80;48.30;;;;;;5074214;28;20717;-87
2021/05/10 11:52:05;;;;;;;4.00;1.40;;;23.80;48.70;;;;;;5075435;28;20227;-87
2021/05/10 11:54:31;;;;;;;4.00;1.70;;;23.80;50.70;;;;;;5073664;28;20590;-87
2021/05/10 11:57:00;;;;;;;4.07;1.80;;;23.80;52.10;;;;;;5074578;28;20178;-87
2021/05/10 12:02:17;;;;;;;4.63;1.60;;;24.00;50.10;;;;;;5076339;28;20195;-88
2021/05/10 12:04:45;;;;;;;4.43;1.80;;;24.20;50.70;;;;;;5074851;28;20242;-87
2021/05/10 12:07:11;;;;;;;1.35;1.20;;;24.40;49.70;;;;;;5076296;28;20190;-87
2021/05/10 12:10:03;;;;;;;2.30;1.33;;;24.50;50.10;;;;;;5073745;28;20249;-87
2021/05/10 12:12:32;;;;;;;8.30;1.30;;;24.30;48.70;;;;;;5074687;28;20194;-87
2021/05/10 12:15:02;;;;;;;5.10;1.75;;;24.20;48.70;;;;;;5073489;28;20197;-87
2021/05/10 12:17:28;;;;;;;2.35;1.45;;;24.20;51.30;;;;;;5073848;28;20191;-87
2021/05/10 12:20:08;;;;;;;5.35;1.60;;;24.20;49.00;;;;;;5073787;28;20267;-87
2021/05/10 12:22:48;;;;;;;3.40;1.70;;;24.10;49.50;;;;;;5074054;28;20330;-87
2021/05/10 12:25:15;;;;;;;3.35;1.58;;;24.00;49.90;;;;;;5074943;28;20152;-87
2021/05/10 12:27:45;;;;;;;3.67;1.67;;;23.90;49.70;;;;;;5073826;28;20590;-87
2021/05/10 12:30:17;;;;;;;5.05;1.60;;;23.70;50.40;;;;;;5073933;28;20179;-87
2021/05/10 12:32:52;;;;;;;6.47;1.38;;;23.30;52.20;;;;;;5074662;28;20198;-87
2021/05/10 12:35:21;;;;;;;10.25;1.42;;;22.80;54.10;;;;;;5075176;28;20155;-87
2021/05/10 12:37:50;;;;;;;9.82;1.48;;;22.70;54.80;;;;;;5074302;28;20252;-87
2021/05/10 12:40:19;;;;;;;13.65;1.60;;;22.60;55.70;;;;;;5072987;28;20167;-87
2021/05/10 12:43:03;;;;;;;5.80;1.50;;;22.60;56.20;;;;;;5074410;28;20674;-87
2021/05/10 12:45:29;;;;;;;6.18;2.22;;;22.20;56.70;;;;;;5075253;28;20159;-88
2021/05/10 12:47:56;;;;;;;8.02;1.80;;;22.20;56.80;;;;;;5072981;28;20662;-88
2021/05/10 12:50:33;;;;;;;6.85;1.75;;;22.20;57.20;;;;;;5073443;28;20171;-88
2021/05/10 12:53:03;;;;;;;8.65;1.42;;;22.10;57.50;;;;;;5073667;28;20171;-88
2021/05/10 12:55:30;;;;;;;7.13;1.40;;;22.30;56.80;;;;;;5072815;28;20186;-88
2021/05/10 12:57:56;;;;;;;11.75;1.67;;;22.50;56.80;;;;;;5073296;28;20666;-88
2021/05/10 13:00:35;;;;;;;11.57;1.70;;;22.60;57.30;;;;;;5073094;28;20172;-88
2021/05/10 13:03:02;;;;;;;7.47;1.45;;;22.70;57.80;;;;;;5071879;28;20183;-88
2021/05/10 13:05:35;;;;;;;4.20;1.35;;;22.70;56.90;;;;;;5071791;28;20664;-88